Alamo, Nevada Weather observations

Data are for observation ending at time listed.
 Day   Time    Ave.   Ave.  Ave.  Vector   Max.   Stn.    Total    Solar   Ave.  
  of    of     Air    Rel.  Wind   Wind    Wind   Baro.  Precip.   Rad.    Soil  
Year   Day     Temp.  Hum.  Speed  Dir.    Gust   Pres.                    Temp. 
2019   (PST)    F      %     mph   deg.    mph     mb.     in.     W/m2     F   
------------------------------------------------------------------------------
 323    1:40   35.2    58    0.0     0      0.0   892.5    0.00       0    50.4
 323    1:50   34.5    62    1.1    21      1.9   892.4    0.00       0    50.2
 323    2:00   34.2    64    0.5    20      1.6   892.3    0.00       0    50.0
 323    2:10   34.2    63    1.3    43      3.8   892.3    0.00       0    49.9
 323    2:20   34.1    62    1.1    37      3.3   892.2    0.00       0    49.7
 323    2:30   33.8    61    0.1   285      0.9   892.0    0.00       0    49.6
 323    2:40   33.6    61    0.2   240      1.1   891.9    0.00       0    49.4
 323    2:50   33.6    60    0.3     3      1.7   891.8    0.00       0    49.3
 323    3:00   33.5    60    0.1   334      0.9   891.9    0.00       0    49.2
 323    3:10   33.3    61    0.4   287      1.9   891.7    0.00       0    49.0
 323    3:20   33.1    60    0.3   314      1.5   891.6    0.00       0    48.8
 323    3:30   32.9    62    0.7    36      2.0   891.6    0.00       0    48.7
 323    3:40   32.6    68    1.2    22      2.2   891.6    0.00       0    48.6
 323    3:50   32.3    66    0.6   355      2.0   891.6    0.00       0    48.4
 323    4:00   32.1    66    0.2    28      1.2   891.6    0.00       0    48.3
 323    4:10   31.8    66    0.0   226      0.7   891.7    0.00       0    48.2
 323    4:20   31.8    64    0.2   276      2.0   891.6    0.00       0    48.1
 323    4:30   31.7    65    0.0   348      0.5   891.8    0.00       0    47.9
 323    4:40   31.5    66    0.0    46      1.1   891.9    0.00       0    47.8
 323    4:50   31.7    66    0.0    46      0.5   891.8    0.00       0    47.7
 323    5:00   31.8    63    0.0   314      1.0   891.6    0.00       0    47.6
 323    5:10   31.4    64    0.0     0      0.0   891.4    0.00       0    47.5
 323    5:20   31.2    64    0.0     0      0.0   891.2    0.00       0    47.4
 323    5:30   31.1    65    0.0     0      0.0   891.3    0.00       0    47.2
 323    5:40   30.9    66    0.0     0      0.0   891.2    0.00       0    47.1
 323    5:50   30.6    68    0.1    55      1.5   891.2    0.00       0    47.0
 323    6:00   30.6    68    0.0     0      0.0   891.3    0.00       0    46.9
 323    6:10   30.5    68    0.4    58      2.1   891.5    0.00       0    46.7
 323    6:20   30.3    69    0.0     0      0.0   891.7    0.00       0    46.6
 323    6:30   30.5    68    0.0     0      0.0   891.8    0.00       0    46.5
 323    6:40   30.4    67    0.0     0      0.0   891.7    0.00       0    46.4
 323    6:50   30.5    66    0.0     0      0.0   891.7    0.00       8    46.3
 323    7:00   30.8    65    0.1    14      1.1   891.7    0.00      16    46.2
 323    7:10   31.1    67    0.6    34      2.2   891.7    0.00      27    46.1
 323    7:20   32.0    66    0.0    49      0.9   891.6    0.00      30    46.1
 323    7:30   32.7    65    0.5   279      1.7   891.6    0.00      37    46.1
 323    7:40   33.7    62    0.0     0      0.0   891.5    0.00      32    46.0
 323    7:50   34.5    58    0.0    58      0.9   891.5    0.00      33    46.0
 323    8:00   35.4    56    0.0    45      0.3   891.5    0.00      40    46.0
 323    8:10   35.9    56    0.0   283      0.7   891.6    0.00      41    46.1
 323    8:20   36.2    54    0.2    30      1.7   891.5    0.00      53    46.1
 323    8:30   36.7    57    0.0     0      0.0   891.4    0.00      64    46.2
 323    8:40   37.4    55    0.0   231      0.8   891.3    0.00      67    46.2
 323    8:50   38.7    53    0.0     0      0.0   891.2    0.00      67    46.3
 323    9:00   40.2    51    0.0     0      0.0   891.1    0.00      70    46.5
 323    9:10   41.6    48    0.0   198      0.3   890.9    0.00      81    46.6
 323    9:20   43.4    43    0.0   196      0.7   890.8    0.00      84    46.8
 323    9:30   44.4    41    0.0   342      0.7   890.7    0.00     102    47.0
 323    9:40   44.9    41    2.0   359      4.7   890.6    0.00     120    47.2
 323    9:50   44.6    43    1.8    23      4.2   890.5    0.00     134    47.4
 323   10:00   45.8    39    0.4    37      2.3   890.4    0.00     145    47.7
 323   10:10   47.2    37    0.2    25      2.0   890.2    0.00     146    48.0
 323   10:20   48.4    37    0.8   346      2.4   890.0    0.00     160    48.3
 323   10:30   49.3    37    0.2   342      1.5   889.8    0.00     165    48.7
 323   10:40   50.0    36    0.3   212      1.3   889.6    0.00     155    49.0
 323   10:50   50.6    35    0.1   212      1.2   889.4    0.00     153    49.3
 323   11:00   51.2    35    0.1   222      1.0   889.2    0.00     142    49.7
 323   11:10   51.6    34    0.0     0      0.0   889.1    0.00     143    50.0
 323   11:20   52.2    33    0.0   315      0.5   888.9    0.00     161    50.3
 323   11:30   53.2    32    0.0   244      0.1   888.6    0.00     180    50.5
 323   11:40   54.3    32    0.0   275      1.0   888.3    0.00     188    50.8
 323   11:50   55.4    31    0.0     0      0.0   888.1    0.00     190    51.2
 323   12:00   56.7    31    0.2   214      1.8   888.0    0.00     216    51.5
 323   12:10   59.7    28    0.5   193      3.4   888.0    0.00     315    51.8
 323   12:20   62.6    23    0.8   199      3.7   887.8    0.00     464    52.3
 323   12:30   63.2    22    1.3   194      4.0   887.5    0.00     388    53.0
 323   12:40   63.0    23    1.9   206      5.7   886.9    0.00     375    53.9
 323   12:50   62.5    23    1.4   187      4.2   886.7    0.00     280    54.6
 323   13:00   62.1    23    1.3   180      5.8   886.4    0.00     236    55.2
 323   13:10   62.5    22    0.4   179      3.9   886.2    0.00     263    55.7
 323   13:20   62.4    22    0.7   181      4.0   886.0    0.00     232    56.0
 323   13:30   62.5    22    1.0   184      5.3   885.8    0.00     239    56.3
 323   13:40   62.5    22    1.3   185      4.3   885.7    0.00     220    56.5
 323   13:50   62.1    23    2.0   177      5.9   885.5    0.00     217    56.7
 323   14:00   61.7    23    1.6   177      5.0   885.4    0.00     169    56.8
 323   14:10   61.5    24    1.6   190      5.6   885.1    0.00     158    56.9
 323   14:20   61.6    24    1.9   207      5.1   884.9    0.00     169    57.0
 323   14:30   61.7    23    2.5   208      4.7   884.7    0.00     169    57.0
 323   14:40   62.2    23    1.7   197      5.3   884.4    0.00     205    57.0
 323   14:50   63.1    22    1.6   206      7.4   884.1    0.00     191    57.1
 323   15:00   63.3    23    1.5   180      5.1   883.9    0.00     326    57.2
 323   15:10   65.2    21    1.9   183      4.9   883.9    0.00     340    57.4
 323   15:20   65.2    20    1.6   181      4.5   883.9    0.00     260    57.7
 323   15:30   64.9    20    1.9   178      4.3   883.9    0.00     268    58.0
 323   15:40   65.0    21    1.1   184      3.3   883.9    0.00     164    58.2
 323   15:50   62.8    22    0.2   180      2.3   883.9    0.00      47    58.4
 323   16:00   61.3    23    0.1   208      0.8   883.5    0.00      45    58.2
 323   16:10   60.3    24    0.2   216      1.6   883.4    0.00      40    58.0
 323   16:20   59.3    25    0.0   271      0.6   883.4    0.00      25    57.7
 323   16:30   57.8    26    0.7   273      1.8   883.4    0.00      11    57.4
 323   16:40   56.8    27    0.2    61      1.5   883.5    0.00       6    57.2
 323   16:50   56.0    30    0.0     0      0.0   883.4    0.00       1    56.9
 323   17:00   55.0    30    0.0   284      0.9   883.3    0.00       0    56.6
 323   17:10   54.0    30    0.0   274      0.7   883.2    0.00       0    56.4
 323   17:20   53.4    30    0.0     0      0.0   883.2    0.00       0    56.1
 323   17:30   52.8    31    0.1   202      2.0   883.3    0.00       0    55.8
 323   17:40   52.7    31    0.3    18      3.3   883.2    0.00       0    55.6
 323   17:50   52.4    35    0.5   350      1.6   883.2    0.00       0    55.4
 323   18:00   52.1    37    0.4    24      1.8   883.2    0.00       0    55.2
 323   18:10   51.8    36    0.4   337      2.0   883.1    0.00       0    55.1
 323   18:20   52.6    35    0.3   358      2.1   882.9    0.00       0    54.9
 323   18:30   53.4    34    0.0     0      0.0   882.7    0.00       0    54.8
 323   18:40   53.9    33    0.0     0      0.0   882.7    0.00       0    54.7
 323   18:50   54.3    32    0.0    49      1.1   882.5    0.00       0    54.6
 323   19:00   54.6    32    0.0   255      0.6   882.3    0.00       0    54.5
 323   19:10   54.4    33    0.0     0      0.0   882.2    0.00       0    54.4
 323   19:20   54.0    35    0.0   272      0.9   882.1    0.00       0    54.4
 323   19:30   54.2    35    0.0     0      0.0   881.9    0.00       0    54.3
 323   19:40   54.2    35    0.2   220      1.2   881.8    0.00       0    54.2
 323   19:50   54.1    36    0.0     0      0.0   881.8    0.00       0    54.2
 323   20:00   53.4    37    0.0   312      0.7   881.9    0.00       0    54.2
 323   20:10   53.0    42    0.4    24      2.0   881.8    0.00       0    54.1
 323   20:20   52.5    42    0.3   329      2.0   881.8    0.00       0    54.0
 323   20:30   52.5    40    0.1    24      2.3   881.9    0.00       0    54.0
 323   20:40   53.7    45    0.3   219      3.8   881.6    0.00       0    53.9
 323   20:50   57.1    46    0.4   181      3.9   881.2    0.00       0    53.9
 323   21:00   57.9    47    1.5   192      5.6   881.3    0.00       0    53.9
 323   21:10   57.4    48    0.8   172      6.2   881.4    0.00       0    53.9
 323   21:20   59.2    46    1.3   159      6.4   881.1    0.00       0    53.9
 323   21:30   59.0    48    1.4   182      6.1   881.2    0.00       0    54.0
 323   21:40   58.4    49    1.5   179      6.5   881.0    0.00       0    54.1
 323   21:50   58.2    50    1.0   183      4.0   881.0    0.00       0    54.1
 323   22:00   57.9    52    0.7   180      4.1   880.9    0.00       0    54.2
 323   22:10   58.0    56    1.1   156      9.9   880.8    0.00       0    54.2
 323   22:20   57.7    62    0.8   168      4.5   880.7    0.00       0    54.3
 323   22:30   57.2    65    0.3   174      3.3   880.7    0.00       0    54.3
 323   22:40   57.0    67    1.0   159      7.4   880.3    0.00       0    54.3
 323   22:50   57.1    67    1.1   185      7.7   880.4    0.00       0    54.4
 323   23:00   56.6    72    2.4   178      8.3   880.4    0.00       0    54.4
 323   23:10   55.9    74    2.3   176     10.2   880.3    0.00       0    54.5
 323   23:20   55.4    74    2.4   182      8.2   880.3    0.00       0    54.5
 323   23:30   55.3    74    1.5   181      5.7   880.3    0.00       0    54.5
 323   23:40   55.4    74    1.8   178      8.9   880.5    0.00       0    54.6
 323   23:50   55.2    76    2.1   180      7.6   880.6    0.00       0    54.6
 324    0:00   55.0    77    1.5   188      5.5   880.6    0.00       0    54.6
 324    0:10   54.9    77    1.2   186      6.9   880.6    0.00       0    54.6
 324    0:20   54.8    77    1.8   183      7.7   880.5    0.00       0    54.6
 324    0:30   54.6    77    1.1   177      6.1   880.3    0.00       0    54.6
 324    0:40   54.3    78    2.1   180      9.6   880.3    0.00       0    54.6
 324    0:50   54.1    79    1.2   192      5.8   880.4    0.00       0    54.6
 324    1:00   54.0    79    1.0   168      6.9   880.5    0.00       0    54.6
 324    1:10   53.9    80    1.3   176     10.2   880.5    0.00       0    54.6
 324    1:20   53.7    80    1.1   179      7.4   880.5    0.00       0    54.6
 324    1:30   53.4    81    1.5   185      4.9   880.5    0.00       0    54.5

Return to Alamo, Nevada graphs page.


Western Regional Climate Center,wrcc@dri.edu